sensor_id;sensor_type;location;lat;lon;timestamp;P1;durP1;ratioP1;P2;durP2;ratioP2
45970;SDS011;31681;48.982;8.394;2024-02-15T00:00:15;4.80;;;1.63;;
45970;SDS011;31681;48.982;8.394;2024-02-15T00:02:42;2.55;;;1.40;;
45970;SDS011;31681;48.982;8.394;2024-02-15T00:05:10;3.65;;;1.65;;
45970;SDS011;31681;48.982;8.394;2024-02-15T00:07:35;2.17;;;1.55;;
45970;SDS011;31681;48.982;8.394;2024-02-15T00:10:01;2.83;;;1.58;;
45970;SDS011;31681;48.982;8.394;2024-02-15T00:12:28;4.50;;;1.50;;
45970;SDS011;31681;48.982;8.394;2024-02-15T00:14:54;4.10;;;1.48;;
45970;SDS011;31681;48.982;8.394;2024-02-15T00:17:23;2.88;;;1.50;;
45970;SDS011;31681;48.982;8.394;2024-02-15T00:19:49;4.53;;;1.70;;
45970;SDS011;31681;48.982;8.394;2024-02-15T00:22:14;5.10;;;1.58;;
45970;SDS011;31681;48.982;8.394;2024-02-15T00:24:40;2.38;;;1.58;;
45970;SDS011;31681;48.982;8.394;2024-02-15T00:27:06;3.40;;;1.60;;
45970;SDS011;31681;48.982;8.394;2024-02-15T00:29:35;6.07;;;1.50;;
45970;SDS011;31681;48.982;8.394;2024-02-15T00:32:00;2.70;;;1.60;;
45970;SDS011;31681;48.982;8.394;2024-02-15T00:34:26;1.60;;;1.50;;
45970;SDS011;31681;48.982;8.394;2024-02-15T00:36:52;2.20;;;1.73;;
45970;SDS011;31681;48.982;8.394;2024-02-15T00:39:18;4.00;;;1.95;;
45970;SDS011;31681;48.982;8.394;2024-02-15T00:41:45;4.13;;;1.90;;
45970;SDS011;31681;48.982;8.394;2024-02-15T00:44:10;4.25;;;1.88;;
45970;SDS011;31681;48.982;8.394;2024-02-15T00:46:39;3.25;;;1.55;;
45970;SDS011;31681;48.982;8.394;2024-02-15T00:49:06;3.55;;;1.50;;
45970;SDS011;31681;48.982;8.394;2024-02-15T00:51:35;3.97;;;2.00;;
45970;SDS011;31681;48.982;8.394;2024-02-15T00:54:01;4.20;;;2.20;;
45970;SDS011;31681;48.982;8.394;2024-02-15T00:56:27;5.60;;;2.15;;
45970;SDS011;31681;48.982;8.394;2024-02-15T00:58:55;2.58;;;1.90;;
45970;SDS011;31681;48.982;8.394;2024-02-15T01:01:21;4.03;;;2.05;;
45970;SDS011;31681;48.982;8.394;2024-02-15T01:03:46;3.88;;;1.83;;
45970;SDS011;31681;48.982;8.394;2024-02-15T01:06:12;4.80;;;1.83;;
45970;SDS011;31681;48.982;8.394;2024-02-15T01:08:38;2.72;;;1.85;;
45970;SDS011;31681;48.982;8.394;2024-02-15T01:11:06;4.82;;;1.80;;
45970;SDS011;31681;48.982;8.394;2024-02-15T01:13:32;3.55;;;2.03;;
45970;SDS011;31681;48.982;8.394;2024-02-15T01:16:00;4.35;;;1.80;;
45970;SDS011;31681;48.982;8.394;2024-02-15T01:18:31;4.57;;;2.22;;
45970;SDS011;31681;48.982;8.394;2024-02-15T01:20:57;4.90;;;2.00;;
45970;SDS011;31681;48.982;8.394;2024-02-15T01:23:23;5.25;;;1.90;;
45970;SDS011;31681;48.982;8.394;2024-02-15T01:25:48;3.75;;;1.92;;
45970;SDS011;31681;48.982;8.394;2024-02-15T01:28:14;3.50;;;1.77;;
45970;SDS011;31681;48.982;8.394;2024-02-15T01:30:39;6.25;;;2.25;;
45970;SDS011;31681;48.982;8.394;2024-02-15T01:33:05;5.03;;;1.83;;
45970;SDS011;31681;48.982;8.394;2024-02-15T01:35:30;2.70;;;1.95;;
45970;SDS011;31681;48.982;8.394;2024-02-15T01:37:56;6.93;;;2.20;;
45970;SDS011;31681;48.982;8.394;2024-02-15T01:40:21;2.92;;;1.85;;
45970;SDS011;31681;48.982;8.394;2024-02-15T01:42:49;1.60;;;1.50;;
45970;SDS011;31681;48.982;8.394;2024-02-15T01:45:15;3.60;;;1.85;;
45970;SDS011;31681;48.982;8.394;2024-02-15T01:47:41;2.97;;;1.55;;
45970;SDS011;31681;48.982;8.394;2024-02-15T01:50:10;3.85;;;2.00;;
45970;SDS011;31681;48.982;8.394;2024-02-15T01:52:35;5.13;;;1.95;;
45970;SDS011;31681;48.982;8.394;2024-02-15T01:55:02;4.03;;;1.90;;
45970;SDS011;31681;48.982;8.394;2024-02-15T01:57:34;2.75;;;1.85;;
45970;SDS011;31681;48.982;8.394;2024-02-15T01:59:59;3.42;;;1.73;;
45970;SDS011;31681;48.982;8.394;2024-02-15T02:02:25;3.72;;;2.08;;
45970;SDS011;31681;48.982;8.394;2024-02-15T02:04:53;3.00;;;1.90;;
45970;SDS011;31681;48.982;8.394;2024-02-15T02:07:22;5.50;;;2.53;;
45970;SDS011;31681;48.982;8.394;2024-02-15T02:09:48;4.32;;;2.17;;
45970;SDS011;31681;48.982;8.394;2024-02-15T02:12:14;3.67;;;2.03;;
45970;SDS011;31681;48.982;8.394;2024-02-15T02:14:40;3.33;;;1.75;;
45970;SDS011;31681;48.982;8.394;2024-02-15T02:17:15;6.00;;;1.83;;
45970;SDS011;31681;48.982;8.394;2024-02-15T02:19:41;3.92;;;1.60;;
45970;SDS011;31681;48.982;8.394;2024-02-15T02:22:08;4.03;;;1.90;;
45970;SDS011;31681;48.982;8.394;2024-02-15T02:24:38;5.10;;;1.98;;
45970;SDS011;31681;48.982;8.394;2024-02-15T02:27:05;3.08;;;1.98;;
45970;SDS011;31681;48.982;8.394;2024-02-15T02:29:32;5.05;;;1.90;;
45970;SDS011;31681;48.982;8.394;2024-02-15T02:31:58;5.65;;;2.00;;
45970;SDS011;31681;48.982;8.394;2024-02-15T02:34:23;5.38;;;2.10;;
45970;SDS011;31681;48.982;8.394;2024-02-15T02:36:49;3.92;;;2.30;;
45970;SDS011;31681;48.982;8.394;2024-02-15T02:39:15;3.75;;;2.30;;
45970;SDS011;31681;48.982;8.394;2024-02-15T02:41:41;5.45;;;2.25;;
45970;SDS011;31681;48.982;8.394;2024-02-15T02:44:07;2.42;;;1.98;;
45970;SDS011;31681;48.982;8.394;2024-02-15T02:46:33;3.17;;;2.47;;
45970;SDS011;31681;48.982;8.394;2024-02-15T02:48:58;4.75;;;2.40;;
45970;SDS011;31681;48.982;8.394;2024-02-15T02:51:23;5.07;;;2.20;;
45970;SDS011;31681;48.982;8.394;2024-02-15T02:53:49;4.22;;;2.38;;
45970;SDS011;31681;48.982;8.394;2024-02-15T02:56:14;4.50;;;2.20;;
45970;SDS011;31681;48.982;8.394;2024-02-15T02:58:39;3.55;;;2.20;;
45970;SDS011;31681;48.982;8.394;2024-02-15T03:01:08;7.07;;;2.30;;
45970;SDS011;31681;48.982;8.394;2024-02-15T03:03:33;5.50;;;2.30;;
45970;SDS011;31681;48.982;8.394;2024-02-15T03:05:59;5.38;;;2.30;;
45970;SDS011;31681;48.982;8.394;2024-02-15T03:08:24;4.28;;;2.20;;
45970;SDS011;31681;48.982;8.394;2024-02-15T03:10:49;3.75;;;2.10;;
45970;SDS011;31681;48.982;8.394;2024-02-15T03:13:17;4.03;;;2.35;;
45970;SDS011;31681;48.982;8.394;2024-02-15T03:15:45;5.47;;;2.10;;
45970;SDS011;31681;48.982;8.394;2024-02-15T03:18:14;3.42;;;2.17;;
45970;SDS011;31681;48.982;8.394;2024-02-15T03:20:39;3.50;;;1.83;;
45970;SDS011;31681;48.982;8.394;2024-02-15T03:23:05;3.70;;;2.42;;
45970;SDS011;31681;48.982;8.394;2024-02-15T03:25:30;4.38;;;2.40;;
45970;SDS011;31681;48.982;8.394;2024-02-15T03:27:56;5.68;;;2.47;;
45970;SDS011;31681;48.982;8.394;2024-02-15T03:30:22;4.05;;;2.10;;
45970;SDS011;31681;48.982;8.394;2024-02-15T03:32:51;5.60;;;2.45;;
45970;SDS011;31681;48.982;8.394;2024-02-15T03:35:17;5.90;;;2.67;;
45970;SDS011;31681;48.982;8.394;2024-02-15T03:37:43;3.47;;;2.25;;
45970;SDS011;31681;48.982;8.394;2024-02-15T03:40:08;5.47;;;2.22;;
45970;SDS011;31681;48.982;8.394;2024-02-15T03:42:34;7.30;;;2.38;;
45970;SDS011;31681;48.982;8.394;2024-02-15T03:45:04;6.38;;;2.20;;
45970;SDS011;31681;48.982;8.394;2024-02-15T03:47:34;3.83;;;2.10;;
45970;SDS011;31681;48.982;8.394;2024-02-15T03:50:03;3.53;;;2.15;;
45970;SDS011;31681;48.982;8.394;2024-02-15T03:52:29;4.00;;;2.38;;
45970;SDS011;31681;48.982;8.394;2024-02-15T03:54:55;4.13;;;2.30;;
45970;SDS011;31681;48.982;8.394;2024-02-15T03:57:22;3.42;;;2.03;;
45970;SDS011;31681;48.982;8.394;2024-02-15T03:59:47;5.95;;;2.15;;
45970;SDS011;31681;48.982;8.394;2024-02-15T04:02:18;3.70;;;1.80;;
45970;SDS011;31681;48.982;8.394;2024-02-15T04:04:43;6.28;;;2.33;;
45970;SDS011;31681;48.982;8.394;2024-02-15T04:07:12;3.50;;;2.22;;
45970;SDS011;31681;48.982;8.394;2024-02-15T04:09:37;4.88;;;1.90;;
45970;SDS011;31681;48.982;8.394;2024-02-15T04:12:03;5.55;;;2.30;;
45970;SDS011;31681;48.982;8.394;2024-02-15T04:14:28;5.57;;;2.30;;
45970;SDS011;31681;48.982;8.394;2024-02-15T04:16:53;4.35;;;2.58;;
45970;SDS011;31681;48.982;8.394;2024-02-15T04:19:19;4.97;;;2.08;;
45970;SDS011;31681;48.982;8.394;2024-02-15T04:21:45;4.90;;;2.60;;
45970;SDS011;31681;48.982;8.394;2024-02-15T04:24:11;3.50;;;2.00;;
45970;SDS011;31681;48.982;8.394;2024-02-15T04:26:37;6.15;;;2.35;;
45970;SDS011;31681;48.982;8.394;2024-02-15T04:29:02;6.53;;;2.33;;
45970;SDS011;31681;48.982;8.394;2024-02-15T04:31:28;3.17;;;2.03;;
45970;SDS011;31681;48.982;8.394;2024-02-15T04:33:53;6.90;;;2.20;;
45970;SDS011;31681;48.982;8.394;2024-02-15T04:36:19;5.03;;;2.70;;
45970;SDS011;31681;48.982;8.394;2024-02-15T04:38:49;4.47;;;2.63;;
45970;SDS011;31681;48.982;8.394;2024-02-15T04:41:15;6.30;;;3.92;;
45970;SDS011;31681;48.982;8.394;2024-02-15T04:43:46;7.95;;;4.25;;
45970;SDS011;31681;48.982;8.394;2024-02-15T04:46:11;8.60;;;4.20;;
45970;SDS011;31681;48.982;8.394;2024-02-15T04:48:37;12.90;;;6.25;;
45970;SDS011;31681;48.982;8.394;2024-02-15T04:51:02;21.42;;;13.15;;
45970;SDS011;31681;48.982;8.394;2024-02-15T04:53:28;24.05;;;12.63;;
45970;SDS011;31681;48.982;8.394;2024-02-15T04:55:57;17.98;;;11.38;;
45970;SDS011;31681;48.982;8.394;2024-02-15T04:58:27;15.68;;;11.02;;
45970;SDS011;31681;48.982;8.394;2024-02-15T05:00:54;17.48;;;11.82;;
45970;SDS011;31681;48.982;8.394;2024-02-15T05:03:24;13.40;;;8.45;;
45970;SDS011;31681;48.982;8.394;2024-02-15T05:05:49;9.55;;;5.95;;
45970;SDS011;31681;48.982;8.394;2024-02-15T05:08:15;10.85;;;6.72;;
45970;SDS011;31681;48.982;8.394;2024-02-15T05:10:40;11.32;;;7.20;;
45970;SDS011;31681;48.982;8.394;2024-02-15T05:13:06;5.90;;;4.03;;
45970;SDS011;31681;48.982;8.394;2024-02-15T05:15:31;4.40;;;3.40;;
45970;SDS011;31681;48.982;8.394;2024-02-15T05:17:58;4.97;;;2.60;;
45970;SDS011;31681;48.982;8.394;2024-02-15T05:20:23;3.63;;;2.30;;
45970;SDS011;31681;48.982;8.394;2024-02-15T05:22:50;6.68;;;2.47;;
45970;SDS011;31681;48.982;8.394;2024-02-15T05:25:15;3.33;;;2.38;;
45970;SDS011;31681;48.982;8.394;2024-02-15T05:27:41;6.15;;;2.22;;
45970;SDS011;31681;48.982;8.394;2024-02-15T05:30:08;5.60;;;2.35;;
45970;SDS011;31681;48.982;8.394;2024-02-15T05:32:34;6.28;;;2.13;;
45970;SDS011;31681;48.982;8.394;2024-02-15T05:35:07;3.88;;;1.73;;
45970;SDS011;31681;48.982;8.394;2024-02-15T05:37:33;3.80;;;1.92;;
45970;SDS011;31681;48.982;8.394;2024-02-15T05:40:00;3.45;;;2.22;;
45970;SDS011;31681;48.982;8.394;2024-02-15T05:42:25;4.85;;;2.10;;
45970;SDS011;31681;48.982;8.394;2024-02-15T05:44:52;3.80;;;1.90;;
45970;SDS011;31681;48.982;8.394;2024-02-15T05:47:17;4.60;;;2.30;;
45970;SDS011;31681;48.982;8.394;2024-02-15T05:49:43;3.22;;;2.25;;
45970;SDS011;31681;48.982;8.394;2024-02-15T05:52:13;2.42;;;1.90;;
45970;SDS011;31681;48.982;8.394;2024-02-15T05:54:39;4.18;;;2.10;;
45970;SDS011;31681;48.982;8.394;2024-02-15T05:57:06;2.67;;;1.90;;
45970;SDS011;31681;48.982;8.394;2024-02-15T05:59:34;4.00;;;2.00;;
45970;SDS011;31681;48.982;8.394;2024-02-15T06:02:00;2.65;;;1.92;;
45970;SDS011;31681;48.982;8.394;2024-02-15T06:04:26;3.28;;;1.90;;
45970;SDS011;31681;48.982;8.394;2024-02-15T06:06:52;3.40;;;1.95;;
45970;SDS011;31681;48.982;8.394;2024-02-15T06:09:19;5.93;;;2.28;;
45970;SDS011;31681;48.982;8.394;2024-02-15T06:11:47;4.10;;;1.92;;
45970;SDS011;31681;48.982;8.394;2024-02-15T06:14:12;4.25;;;2.47;;
45970;SDS011;31681;48.982;8.394;2024-02-15T06:16:41;5.13;;;1.75;;
45970;SDS011;31681;48.982;8.394;2024-02-15T06:19:07;4.57;;;2.05;;
45970;SDS011;31681;48.982;8.394;2024-02-15T06:21:32;4.22;;;2.08;;
45970;SDS011;31681;48.982;8.394;2024-02-15T06:24:00;3.90;;;2.17;;
45970;SDS011;31681;48.982;8.394;2024-02-15T06:26:25;2.83;;;1.73;;
45970;SDS011;31681;48.982;8.394;2024-02-15T06:28:51;4.25;;;2.28;;
45970;SDS011;31681;48.982;8.394;2024-02-15T06:31:35;2.22;;;2.00;;
45970;SDS011;31681;48.982;8.394;2024-02-15T06:34:18;4.75;;;2.20;;
45970;SDS011;31681;48.982;8.394;2024-02-15T06:37:02;3.20;;;1.92;;
45970;SDS011;31681;48.982;8.394;2024-02-15T06:39:46;3.88;;;2.00;;
45970;SDS011;31681;48.982;8.394;2024-02-15T06:42:13;3.17;;;2.15;;
45970;SDS011;31681;48.982;8.394;2024-02-15T06:44:46;4.13;;;2.28;;
45970;SDS011;31681;48.982;8.394;2024-02-15T06:47:12;3.25;;;2.15;;
45970;SDS011;31681;48.982;8.394;2024-02-15T06:49:38;5.93;;;2.80;;
45970;SDS011;31681;48.982;8.394;2024-02-15T06:52:09;7.47;;;2.88;;
45970;SDS011;31681;48.982;8.394;2024-02-15T06:54:36;6.85;;;2.40;;
45970;SDS011;31681;48.982;8.394;2024-02-15T06:57:03;5.90;;;2.33;;
45970;SDS011;31681;48.982;8.394;2024-02-15T06:59:29;5.32;;;2.60;;
45970;SDS011;31681;48.982;8.394;2024-02-15T07:01:54;4.00;;;2.45;;
45970;SDS011;31681;48.982;8.394;2024-02-15T07:04:20;6.03;;;2.47;;
45970;SDS011;31681;48.982;8.394;2024-02-15T07:06:45;5.30;;;2.38;;
45970;SDS011;31681;48.982;8.394;2024-02-15T07:09:13;5.15;;;2.50;;
45970;SDS011;31681;48.982;8.394;2024-02-15T07:11:39;5.25;;;2.67;;
45970;SDS011;31681;48.982;8.394;2024-02-15T07:14:05;5.50;;;2.92;;
45970;SDS011;31681;48.982;8.394;2024-02-15T07:16:32;5.03;;;3.03;;
45970;SDS011;31681;48.982;8.394;2024-02-15T07:18:58;5.18;;;3.15;;
45970;SDS011;31681;48.982;8.394;2024-02-15T07:21:24;5.88;;;3.17;;
45970;SDS011;31681;48.982;8.394;2024-02-15T07:23:52;7.20;;;3.17;;
45970;SDS011;31681;48.982;8.394;2024-02-15T07:26:19;6.10;;;2.67;;
45970;SDS011;31681;48.982;8.394;2024-02-15T07:28:45;8.07;;;3.63;;
45970;SDS011;31681;48.982;8.394;2024-02-15T07:31:11;5.38;;;2.45;;
45970;SDS011;31681;48.982;8.394;2024-02-15T07:33:37;6.45;;;3.40;;
45970;SDS011;31681;48.982;8.394;2024-02-15T07:36:04;3.80;;;2.92;;
45970;SDS011;31681;48.982;8.394;2024-02-15T07:38:29;6.88;;;3.15;;
45970;SDS011;31681;48.982;8.394;2024-02-15T07:41:02;5.90;;;2.90;;
45970;SDS011;31681;48.982;8.394;2024-02-15T07:43:34;6.53;;;3.20;;
45970;SDS011;31681;48.982;8.394;2024-02-15T07:46:00;9.48;;;2.80;;
45970;SDS011;31681;48.982;8.394;2024-02-15T07:48:32;10.93;;;3.65;;
45970;SDS011;31681;48.982;8.394;2024-02-15T07:51:04;4.72;;;3.08;;
45970;SDS011;31681;48.982;8.394;2024-02-15T07:53:35;10.70;;;4.20;;
45970;SDS011;31681;48.982;8.394;2024-02-15T07:56:00;6.25;;;3.30;;
45970;SDS011;31681;48.982;8.394;2024-02-15T07:58:29;8.95;;;3.35;;
45970;SDS011;31681;48.982;8.394;2024-02-15T08:00:56;7.07;;;3.00;;
45970;SDS011;31681;48.982;8.394;2024-02-15T08:03:24;7.30;;;2.53;;
45970;SDS011;31681;48.982;8.394;2024-02-15T08:05:52;8.05;;;2.70;;
45970;SDS011;31681;48.982;8.394;2024-02-15T08:08:17;7.35;;;2.95;;
45970;SDS011;31681;48.982;8.394;2024-02-15T08:10:57;6.63;;;3.17;;
45970;SDS011;31681;48.982;8.394;2024-02-15T08:13:29;5.60;;;3.00;;
45970;SDS011;31681;48.982;8.394;2024-02-15T08:16:01;7.38;;;2.90;;
45970;SDS011;31681;48.982;8.394;2024-02-15T08:18:35;8.63;;;2.90;;
45970;SDS011;31681;48.982;8.394;2024-02-15T08:21:03;6.57;;;3.10;;
45970;SDS011;31681;48.982;8.394;2024-02-15T08:23:29;4.55;;;2.25;;
45970;SDS011;31681;48.982;8.394;2024-02-15T08:25:54;4.97;;;2.40;;
45970;SDS011;31681;48.982;8.394;2024-02-15T08:28:23;5.72;;;2.53;;
45970;SDS011;31681;48.982;8.394;2024-02-15T08:30:51;5.38;;;2.20;;
45970;SDS011;31681;48.982;8.394;2024-02-15T08:33:19;5.57;;;2.65;;
45970;SDS011;31681;48.982;8.394;2024-02-15T08:35:48;4.88;;;2.47;;
45970;SDS011;31681;48.982;8.394;2024-02-15T08:38:16;6.32;;;2.63;;
45970;SDS011;31681;48.982;8.394;2024-02-15T08:40:46;5.10;;;2.75;;
45970;SDS011;31681;48.982;8.394;2024-02-15T08:43:12;6.18;;;2.70;;
45970;SDS011;31681;48.982;8.394;2024-02-15T08:45:48;5.03;;;2.55;;
45970;SDS011;31681;48.982;8.394;2024-02-15T08:48:25;4.07;;;2.30;;
45970;SDS011;31681;48.982;8.394;2024-02-15T08:50:51;3.95;;;2.40;;
45970;SDS011;31681;48.982;8.394;2024-02-15T08:53:17;5.05;;;2.40;;
45970;SDS011;31681;48.982;8.394;2024-02-15T08:55:50;4.55;;;2.30;;
45970;SDS011;31681;48.982;8.394;2024-02-15T08:58:18;4.18;;;2.40;;
45970;SDS011;31681;48.982;8.394;2024-02-15T09:00:43;4.18;;;2.47;;
45970;SDS011;31681;48.982;8.394;2024-02-15T09:03:22;5.68;;;3.08;;
45970;SDS011;31681;48.982;8.394;2024-02-15T09:05:50;6.63;;;3.08;;
45970;SDS011;31681;48.982;8.394;2024-02-15T09:08:19;7.50;;;3.20;;
45970;SDS011;31681;48.982;8.394;2024-02-15T09:10:49;6.07;;;3.13;;
45970;SDS011;31681;48.982;8.394;2024-02-15T09:13:14;6.13;;;2.65;;
45970;SDS011;31681;48.982;8.394;2024-02-15T09:15:43;5.63;;;3.08;;
45970;SDS011;31681;48.982;8.394;2024-02-15T09:18:10;4.93;;;2.75;;
45970;SDS011;31681;48.982;8.394;2024-02-15T09:20:36;6.78;;;2.78;;
45970;SDS011;31681;48.982;8.394;2024-02-15T09:23:05;5.30;;;2.83;;
45970;SDS011;31681;48.982;8.394;2024-02-15T09:25:34;5.57;;;2.60;;
45970;SDS011;31681;48.982;8.394;2024-02-15T09:28:04;6.43;;;2.45;;
45970;SDS011;31681;48.982;8.394;2024-02-15T09:30:29;7.25;;;2.90;;
45970;SDS011;31681;48.982;8.394;2024-02-15T09:32:56;5.70;;;2.30;;
45970;SDS011;31681;48.982;8.394;2024-02-15T09:35:22;8.15;;;2.70;;
45970;SDS011;31681;48.982;8.394;2024-02-15T09:37:48;4.20;;;2.50;;
45970;SDS011;31681;48.982;8.394;2024-02-15T09:40:17;6.30;;;2.33;;
45970;SDS011;31681;48.982;8.394;2024-02-15T09:42:46;6.55;;;2.38;;
45970;SDS011;31681;48.982;8.394;2024-02-15T09:45:12;4.47;;;2.33;;
45970;SDS011;31681;48.982;8.394;2024-02-15T09:47:41;4.07;;;2.25;;
45970;SDS011;31681;48.982;8.394;2024-02-15T09:50:07;3.65;;;2.10;;
45970;SDS011;31681;48.982;8.394;2024-02-15T09:52:45;5.90;;;2.20;;
45970;SDS011;31681;48.982;8.394;2024-02-15T09:55:11;4.88;;;2.10;;
45970;SDS011;31681;48.982;8.394;2024-02-15T09:57:45;3.95;;;1.90;;
45970;SDS011;31681;48.982;8.394;2024-02-15T10:00:32;3.95;;;1.88;;
45970;SDS011;31681;48.982;8.394;2024-02-15T10:03:02;3.05;;;1.75;;
45970;SDS011;31681;48.982;8.394;2024-02-15T10:05:30;5.78;;;2.03;;
45970;SDS011;31681;48.982;8.394;2024-02-15T10:08:02;3.85;;;2.25;;
45970;SDS011;31681;48.982;8.394;2024-02-15T10:10:30;4.38;;;1.73;;
45970;SDS011;31681;48.982;8.394;2024-02-15T10:12:55;4.25;;;2.00;;
45970;SDS011;31681;48.982;8.394;2024-02-15T10:15:40;6.45;;;2.03;;
45970;SDS011;31681;48.982;8.394;2024-02-15T10:18:06;4.03;;;1.63;;
45970;SDS011;31681;48.982;8.394;2024-02-15T10:20:41;4.65;;;1.65;;
45970;SDS011;31681;48.982;8.394;2024-02-15T10:25:38;5.43;;;2.05;;
45970;SDS011;31681;48.982;8.394;2024-02-15T10:28:08;3.03;;;1.80;;
45970;SDS011;31681;48.982;8.394;2024-02-15T10:30:44;3.95;;;1.77;;
45970;SDS011;31681;48.982;8.394;2024-02-15T10:33:19;4.45;;;1.90;;
45970;SDS011;31681;48.982;8.394;2024-02-15T10:36:06;4.15;;;2.00;;
45970;SDS011;31681;48.982;8.394;2024-02-15T10:38:38;4.50;;;1.92;;
45970;SDS011;31681;48.982;8.394;2024-02-15T10:41:15;4.88;;;1.98;;
45970;SDS011;31681;48.982;8.394;2024-02-15T10:43:48;4.45;;;1.92;;
45970;SDS011;31681;48.982;8.394;2024-02-15T10:46:19;5.85;;;1.83;;
45970;SDS011;31681;48.982;8.394;2024-02-15T10:48:48;17.88;;;3.38;;
45970;SDS011;31681;48.982;8.394;2024-02-15T10:51:19;7.47;;;1.95;;
45970;SDS011;31681;48.982;8.394;2024-02-15T10:53:51;5.28;;;1.70;;
45970;SDS011;31681;48.982;8.394;2024-02-15T10:56:33;4.28;;;1.90;;
45970;SDS011;31681;48.982;8.394;2024-02-15T10:59:16;8.40;;;2.13;;
45970;SDS011;31681;48.982;8.394;2024-02-15T11:01:43;4.18;;;1.90;;
45970;SDS011;31681;48.982;8.394;2024-02-15T11:04:29;4.43;;;1.55;;
45970;SDS011;31681;48.982;8.394;2024-02-15T11:06:58;2.78;;;1.50;;
45970;SDS011;31681;48.982;8.394;2024-02-15T11:09:33;3.28;;;1.65;;
45970;SDS011;31681;48.982;8.394;2024-02-15T11:11:59;3.85;;;1.60;;
45970;SDS011;31681;48.982;8.394;2024-02-15T11:14:33;5.78;;;1.75;;
45970;SDS011;31681;48.982;8.394;2024-02-15T11:17:10;2.97;;;1.77;;
45970;SDS011;31681;48.982;8.394;2024-02-15T11:22:14;3.88;;;1.60;;
45970;SDS011;31681;48.982;8.394;2024-02-15T11:24:47;3.83;;;1.63;;
45970;SDS011;31681;48.982;8.394;2024-02-15T11:27:27;4.13;;;1.70;;
45970;SDS011;31681;48.982;8.394;2024-02-15T11:29:56;4.03;;;1.60;;
45970;SDS011;31681;48.982;8.394;2024-02-15T11:35:23;2.28;;;1.30;;
45970;SDS011;31681;48.982;8.394;2024-02-15T11:38:01;4.13;;;1.45;;
45970;SDS011;31681;48.982;8.394;2024-02-15T11:46:35;3.45;;;1.63;;
45970;SDS011;31681;48.982;8.394;2024-02-15T11:49:17;5.72;;;1.50;;
45970;SDS011;31681;48.982;8.394;2024-02-15T11:52:08;4.10;;;1.50;;
45970;SDS011;31681;48.982;8.394;2024-02-15T11:54:34;3.22;;;1.25;;
45970;SDS011;31681;48.982;8.394;2024-02-15T11:57:17;8.82;;;2.20;;
45970;SDS011;31681;48.982;8.394;2024-02-15T12:00:10;4.07;;;1.20;;
45970;SDS011;31681;48.982;8.394;2024-02-15T12:03:16;3.83;;;1.30;;
45970;SDS011;31681;48.982;8.394;2024-02-15T12:06:19;7.45;;;1.35;;
45970;SDS011;31681;48.982;8.394;2024-02-15T12:09:07;3.20;;;1.40;;
45970;SDS011;31681;48.982;8.394;2024-02-15T12:12:01;4.53;;;1.40;;
45970;SDS011;31681;48.982;8.394;2024-02-15T12:14:46;3.10;;;1.63;;
45970;SDS011;31681;48.982;8.394;2024-02-15T12:17:39;4.13;;;1.67;;
45970;SDS011;31681;48.982;8.394;2024-02-15T12:24:18;7.18;;;1.73;;
45970;SDS011;31681;48.982;8.394;2024-02-15T12:26:49;2.72;;;1.30;;
45970;SDS011;31681;48.982;8.394;2024-02-15T12:29:20;3.08;;;1.25;;
45970;SDS011;31681;48.982;8.394;2024-02-15T12:35:32;2.13;;;1.13;;
45970;SDS011;31681;48.982;8.394;2024-02-15T12:38:34;2.85;;;1.10;;
45970;SDS011;31681;48.982;8.394;2024-02-15T12:41:20;4.15;;;1.20;;
45970;SDS011;31681;48.982;8.394;2024-02-15T12:43:52;3.97;;;1.50;;
45970;SDS011;31681;48.982;8.394;2024-02-15T12:46:31;4.80;;;1.52;;
45970;SDS011;31681;48.982;8.394;2024-02-15T12:52:59;2.72;;;1.40;;
45970;SDS011;31681;48.982;8.394;2024-02-15T12:55:51;6.30;;;1.65;;
45970;SDS011;31681;48.982;8.394;2024-02-15T12:58:36;5.43;;;1.58;;
45970;SDS011;31681;48.982;8.394;2024-02-15T13:01:07;5.40;;;1.30;;
45970;SDS011;31681;48.982;8.394;2024-02-15T13:03:46;2.40;;;1.20;;
45970;SDS011;31681;48.982;8.394;2024-02-15T13:06:13;4.70;;;1.75;;
45970;SDS011;31681;48.982;8.394;2024-02-15T13:08:44;3.38;;;1.45;;
45970;SDS011;31681;48.982;8.394;2024-02-15T13:11:59;2.92;;;1.20;;
45970;SDS011;31681;48.982;8.394;2024-02-15T13:18:03;5.78;;;1.38;;
45970;SDS011;31681;48.982;8.394;2024-02-15T13:24:01;6.07;;;1.50;;
45970;SDS011;31681;48.982;8.394;2024-02-15T13:26:55;5.70;;;1.40;;
45970;SDS011;31681;48.982;8.394;2024-02-15T13:29:49;4.78;;;1.15;;
45970;SDS011;31681;48.982;8.394;2024-02-15T13:32:17;4.50;;;1.10;;
45970;SDS011;31681;48.982;8.394;2024-02-15T13:35:00;5.18;;;1.42;;
45970;SDS011;31681;48.982;8.394;2024-02-15T13:40:47;3.50;;;1.30;;
45970;SDS011;31681;48.982;8.394;2024-02-15T13:43:33;3.53;;;1.50;;
45970;SDS011;31681;48.982;8.394;2024-02-15T13:46:26;5.43;;;1.40;;
45970;SDS011;31681;48.982;8.394;2024-02-15T13:48:58;2.38;;;1.50;;
45970;SDS011;31681;48.982;8.394;2024-02-15T13:51:29;3.50;;;1.20;;
45970;SDS011;31681;48.982;8.394;2024-02-15T13:53:59;3.67;;;1.27;;
45970;SDS011;31681;48.982;8.394;2024-02-15T13:56:46;1.98;;;1.05;;
45970;SDS011;31681;48.982;8.394;2024-02-15T13:59:48;4.28;;;1.10;;
45970;SDS011;31681;48.982;8.394;2024-02-15T14:02:28;3.65;;;1.00;;
45970;SDS011;31681;48.982;8.394;2024-02-15T14:05:12;4.45;;;1.33;;
45970;SDS011;31681;48.982;8.394;2024-02-15T14:08:00;3.80;;;1.10;;
45970;SDS011;31681;48.982;8.394;2024-02-15T14:10:50;1.42;;;1.05;;
45970;SDS011;31681;48.982;8.394;2024-02-15T14:13:33;3.60;;;1.45;;
45970;SDS011;31681;48.982;8.394;2024-02-15T14:16:35;4.70;;;1.13;;
45970;SDS011;31681;48.982;8.394;2024-02-15T14:19:44;6.07;;;1.38;;
45970;SDS011;31681;48.982;8.394;2024-02-15T14:22:48;6.40;;;1.48;;
45970;SDS011;31681;48.982;8.394;2024-02-15T14:25:26;3.67;;;1.00;;
45970;SDS011;31681;48.982;8.394;2024-02-15T14:28:05;3.70;;;1.20;;
45970;SDS011;31681;48.982;8.394;2024-02-15T14:30:48;3.90;;;1.30;;
45970;SDS011;31681;48.982;8.394;2024-02-15T14:33:35;2.83;;;1.45;;
45970;SDS011;31681;48.982;8.394;2024-02-15T14:36:03;4.00;;;1.55;;
45970;SDS011;31681;48.982;8.394;2024-02-15T14:38:31;7.35;;;1.20;;
45970;SDS011;31681;48.982;8.394;2024-02-15T14:40:59;2.13;;;1.20;;
45970;SDS011;31681;48.982;8.394;2024-02-15T14:43:30;3.42;;;1.00;;
45970;SDS011;31681;48.982;8.394;2024-02-15T14:45:55;5.35;;;1.13;;
45970;SDS011;31681;48.982;8.394;2024-02-15T14:48:29;6.35;;;1.30;;
45970;SDS011;31681;48.982;8.394;2024-02-15T14:51:08;5.95;;;1.80;;
45970;SDS011;31681;48.982;8.394;2024-02-15T14:53:34;3.03;;;1.08;;
45970;SDS011;31681;48.982;8.394;2024-02-15T14:56:05;8.57;;;1.20;;
45970;SDS011;31681;48.982;8.394;2024-02-15T14:58:33;4.10;;;0.98;;
45970;SDS011;31681;48.982;8.394;2024-02-15T15:01:08;3.08;;;1.08;;
45970;SDS011;31681;48.982;8.394;2024-02-15T15:03:34;5.18;;;1.10;;
45970;SDS011;31681;48.982;8.394;2024-02-15T15:06:03;2.40;;;0.80;;
45970;SDS011;31681;48.982;8.394;2024-02-15T15:08:51;2.55;;;1.02;;
45970;SDS011;31681;48.982;8.394;2024-02-15T15:11:35;2.00;;;1.27;;
45970;SDS011;31681;48.982;8.394;2024-02-15T15:14:21;3.08;;;1.30;;
45970;SDS011;31681;48.982;8.394;2024-02-15T15:16:53;4.13;;;1.05;;
45970;SDS011;31681;48.982;8.394;2024-02-15T15:19:49;2.35;;;1.13;;
45970;SDS011;31681;48.982;8.394;2024-02-15T15:22:15;1.88;;;0.80;;
45970;SDS011;31681;48.982;8.394;2024-02-15T15:24:42;2.50;;;0.90;;
45970;SDS011;31681;48.982;8.394;2024-02-15T15:27:08;2.55;;;1.10;;
45970;SDS011;31681;48.982;8.394;2024-02-15T15:29:34;2.05;;;1.33;;
45970;SDS011;31681;48.982;8.394;2024-02-15T15:32:14;1.98;;;1.20;;
45970;SDS011;31681;48.982;8.394;2024-02-15T15:34:40;4.28;;;1.08;;
45970;SDS011;31681;48.982;8.394;2024-02-15T15:37:11;2.55;;;1.10;;
45970;SDS011;31681;48.982;8.394;2024-02-15T15:39:37;1.63;;;1.20;;
45970;SDS011;31681;48.982;8.394;2024-02-15T15:42:03;3.22;;;1.00;;
45970;SDS011;31681;48.982;8.394;2024-02-15T15:44:28;2.03;;;1.17;;